createdAt,value
2022-08-07T00:02:41.180Z,14.41
2022-08-07T00:05:07.596Z,14.36
2022-08-07T00:07:40.180Z,14.31
2022-08-07T00:10:27.271Z,14.28
2022-08-07T00:13:02.148Z,14.20
2022-08-07T00:15:46.849Z,14.13
2022-08-07T00:18:24.357Z,14.05
2022-08-07T00:20:54.872Z,13.97
2022-08-07T00:23:28.304Z,13.90
2022-08-07T00:26:13.093Z,13.79
2022-08-07T00:28:55.626Z,13.70
2022-08-07T00:31:38.132Z,13.63
2022-08-07T00:34:11.299Z,13.60
2022-08-07T00:36:43.345Z,13.56
2022-08-07T00:39:16.551Z,13.54
2022-08-07T00:42:01.813Z,13.50
2022-08-07T00:44:34.885Z,13.43
2022-08-07T00:47:06.438Z,13.39
2022-08-07T00:50:21.453Z,13.31
2022-08-07T00:52:35.148Z,13.26
2022-08-07T00:55:10.570Z,13.28
2022-08-07T00:57:44.400Z,13.32
2022-08-07T01:00:26.488Z,13.40
2022-08-07T01:02:56.730Z,13.46
2022-08-07T01:05:28.785Z,13.50
2022-08-07T01:07:59.605Z,13.50
2022-08-07T01:10:29.504Z,13.49
2022-08-07T01:13:03.734Z,13.48
2022-08-07T01:16:01.160Z,13.43
2022-08-07T01:18:25.073Z,13.37
2022-08-07T01:20:59.765Z,13.35
2022-08-07T01:23:39.448Z,13.30
2022-08-07T01:26:16.693Z,13.25
2022-08-07T01:28:51.512Z,13.23
2022-08-07T01:31:42.436Z,13.18
2022-08-07T01:34:15.106Z,13.17
2022-08-07T01:36:51.519Z,13.17
2022-08-07T01:39:40.702Z,13.15
2022-08-07T01:42:39.772Z,13.15
2022-08-07T01:45:22.808Z,13.17
2022-08-07T01:48:30.133Z,13.18
2022-08-07T01:50:52.464Z,13.15
2022-08-07T01:54:00.775Z,13.12
2022-08-07T01:56:29.721Z,13.06
2022-08-07T01:59:06.211Z,13.01
2022-08-07T02:02:02.298Z,13.01
2022-08-07T02:04:31.789Z,13.06
2022-08-07T02:07:06.402Z,13.07
2022-08-07T02:09:53.034Z,13.07
2022-08-07T02:12:31.437Z,13.07
2022-08-07T02:15:05.857Z,13.08
2022-08-07T02:17:49.461Z,13.09
2022-08-07T02:20:23.922Z,13.09
2022-08-07T02:23:01.594Z,13.12
2022-08-07T02:26:26.561Z,13.15
2022-08-07T02:28:27.293Z,13.19
2022-08-07T02:31:28.156Z,13.23
2022-08-07T02:34:01.815Z,13.22
2022-08-07T02:36:35.650Z,13.21
2022-08-07T02:39:17.022Z,13.21
2022-08-07T02:42:10.137Z,13.21
2022-08-07T02:44:49.913Z,13.20
2022-08-07T02:47:25.039Z,13.17
2022-08-07T02:50:07.544Z,13.17
2022-08-07T02:52:48.711Z,13.15
2022-08-07T02:55:27.601Z,13.14
2022-08-07T02:58:02.962Z,13.11
2022-08-07T03:00:39.204Z,13.09
2022-08-07T03:03:13.543Z,13.06
2022-08-07T03:05:53.660Z,13.03
2022-08-07T03:08:26.907Z,13.00
2022-08-07T03:11:00.965Z,12.99
2022-08-07T03:13:38.810Z,12.97
2022-08-07T03:16:22.859Z,12.91
2022-08-07T03:18:57.785Z,12.88
2022-08-07T03:21:27.886Z,12.82
2022-08-07T03:24:18.888Z,12.75
2022-08-07T03:26:58.479Z,12.66
2022-08-07T03:29:31.108Z,12.55
2022-08-07T03:32:13.152Z,12.43
2022-08-07T03:34:47.447Z,12.30
2022-08-07T03:37:37.340Z,12.19
2022-08-07T03:40:17.092Z,12.09
2022-08-07T03:42:49.333Z,11.99
2022-08-07T03:45:29.838Z,11.89
2022-08-07T03:48:10.069Z,11.77
2022-08-07T03:50:43.236Z,11.68
2022-08-07T03:53:50.130Z,11.61
2022-08-07T03:56:32.542Z,11.51
2022-08-07T03:59:10.030Z,11.42
2022-08-07T04:01:47.361Z,11.34
2022-08-07T04:04:23.234Z,11.27
2022-08-07T04:06:56.848Z,11.19
2022-08-07T04:09:45.135Z,11.13
2022-08-07T04:12:27.691Z,11.07
2022-08-07T04:15:00.392Z,11.05
2022-08-07T04:18:57.785Z,11.00
2022-08-07T04:20:26.884Z,10.97
2022-08-07T04:23:01.378Z,10.95
2022-08-07T04:25:39.008Z,10.93
2022-08-07T04:28:13.440Z,10.91
2022-08-07T04:30:55.481Z,10.91
2022-08-07T04:33:31.504Z,10.90
2022-08-07T04:36:09.148Z,10.90
2022-08-07T04:38:40.242Z,10.90
2022-08-07T04:41:18.063Z,10.92
2022-08-07T04:44:12.056Z,10.93
2022-08-07T04:46:59.659Z,10.95
2022-08-07T04:49:58.120Z,10.97
2022-08-07T04:52:50.907Z,10.98
2022-08-07T04:58:09.899Z,11.03
2022-08-07T04:58:42.329Z,11.07
2022-08-07T05:01:18.298Z,11.12
2022-08-07T05:04:07.353Z,11.16
2022-08-07T05:06:51.682Z,11.22
2022-08-07T05:09:45.796Z,11.29
2022-08-07T05:12:26.746Z,11.37
2022-08-07T05:15:04.410Z,11.44
2022-08-07T05:17:52.839Z,11.56
2022-08-07T05:20:27.832Z,11.70
2022-08-07T05:23:03.876Z,11.80
2022-08-07T05:26:11.884Z,11.92
2022-08-07T05:28:28.127Z,12.02
2022-08-07T05:30:59.982Z,12.12
2022-08-07T05:33:31.642Z,12.19
2022-08-07T05:36:06.542Z,12.28
2022-08-07T05:39:00.729Z,12.38
2022-08-07T05:42:02.959Z,12.47
2022-08-07T05:44:29.462Z,12.57
2022-08-07T05:47:02.152Z,12.66
2022-08-07T05:49:52.240Z,12.81
2022-08-07T05:52:32.292Z,12.91
2022-08-07T05:55:10.733Z,13.03
2022-08-07T05:57:46.551Z,13.17
2022-08-07T06:00:18.537Z,13.32
2022-08-07T06:02:57.519Z,13.46
2022-08-07T06:05:31.440Z,13.59
2022-08-07T06:08:29.998Z,13.74
2022-08-07T06:10:57.616Z,13.91
2022-08-07T06:14:10.489Z,14.07
2022-08-07T06:16:21.616Z,14.27
2022-08-07T06:18:55.764Z,14.47
2022-08-07T06:22:14.499Z,14.68
2022-08-07T06:24:37.549Z,14.92
2022-08-07T06:27:08.006Z,15.24
2022-08-07T06:29:40.843Z,15.79
2022-08-07T06:32:13.281Z,16.66
2022-08-07T06:34:45.245Z,17.72
2022-08-07T06:37:17.269Z,18.80
2022-08-07T06:40:15.903Z,20.12
2022-08-07T06:42:41.141Z,21.77
2022-08-07T06:45:18.575Z,23.18
2022-08-07T06:47:57.339Z,24.39
2022-08-07T06:50:30.671Z,25.51
2022-08-07T06:53:04.129Z,26.65
2022-08-07T06:55:59.906Z,27.60
2022-08-07T06:58:27.637Z,28.66
2022-08-07T07:01:11.183Z,29.64
2022-08-07T07:03:49.864Z,30.52
2022-08-07T07:06:26.599Z,31.48
2022-08-07T07:08:58.060Z,32.38
2022-08-07T07:12:08.161Z,33.08
2022-08-07T07:14:18.570Z,33.66
2022-08-07T07:16:56.201Z,34.34
2022-08-07T07:19:57.877Z,34.92
2022-08-07T07:22:39.928Z,35.59
2022-08-07T07:26:30.793Z,36.31
2022-08-07T07:28:07.761Z,36.83
2022-08-07T07:30:58.343Z,37.21
2022-08-07T07:33:31.626Z,37.64
2022-08-07T07:36:04.629Z,37.99
2022-08-07T07:38:36.226Z,38.15
2022-08-07T07:41:08.827Z,38.24
2022-08-07T07:44:14.019Z,38.53
2022-08-07T07:46:40.067Z,38.86
2022-08-07T07:50:34.693Z,39.21
2022-08-07T07:52:16.119Z,39.65
2022-08-07T07:54:50.744Z,39.94
2022-08-07T07:57:44.108Z,40.05
2022-08-07T08:00:28.909Z,40.14
2022-08-07T08:03:05.354Z,40.24
2022-08-07T08:05:54.577Z,40.29
2022-08-07T08:08:34.835Z,40.37
2022-08-07T08:11:09.259Z,40.56
2022-08-07T08:13:54.505Z,40.72
2022-08-07T08:16:31.326Z,40.80
2022-08-07T08:19:09.779Z,40.98
2022-08-07T08:22:08.119Z,41.05
2022-08-07T08:25:03.236Z,41.13
2022-08-07T08:27:56.669Z,41.22
2022-08-07T08:30:28.598Z,41.18
2022-08-07T08:33:02.275Z,41.11
2022-08-07T08:35:39.507Z,41.22
2022-08-07T08:38:21.801Z,41.49
2022-08-07T08:41:04.734Z,41.82
2022-08-07T08:43:42.994Z,42.07
2022-08-07T08:46:24.369Z,42.22
2022-08-07T08:49:00.741Z,42.40
2022-08-07T08:52:13.200Z,42.48
2022-08-07T08:54:29.511Z,42.28
2022-08-07T08:57:01.016Z,42.20
2022-08-07T08:59:42.190Z,42.31
2022-08-07T09:02:36.609Z,42.44
2022-08-07T09:05:16.885Z,42.55
2022-08-07T09:07:57.973Z,42.60
2022-08-07T09:10:37.066Z,42.57
2022-08-07T09:13:37.120Z,42.60
2022-08-07T09:16:23.066Z,42.58
2022-08-07T09:19:53.239Z,41.88
2022-08-07T09:24:27.291Z,40.98
2022-08-07T09:25:14.468Z,40.64
2022-08-07T09:28:02.006Z,41.14
2022-08-07T09:30:40.597Z,41.68
2022-08-07T09:33:41.051Z,41.93
2022-08-07T09:36:14.906Z,42.09
2022-08-07T09:38:49.957Z,41.85
2022-08-07T09:41:36.152Z,41.83
2022-08-07T09:44:32.966Z,41.50
2022-08-07T09:47:51.947Z,41.25
2022-08-07T09:50:20.113Z,40.62
2022-08-07T09:52:53.737Z,40.30
2022-08-07T09:55:29.454Z,39.95
2022-08-07T09:58:32.358Z,39.60
2022-08-07T10:01:50.542Z,39.87
2022-08-07T10:04:28.315Z,39.73
2022-08-07T10:07:26.201Z,39.21
2022-08-07T10:10:22.874Z,38.95
2022-08-07T10:13:02.245Z,38.46
2022-08-07T10:15:44.391Z,37.95
2022-08-07T10:18:33.784Z,36.81
2022-08-07T10:22:14.905Z,35.29
2022-08-07T10:24:29.494Z,33.84
2022-08-07T10:27:13.957Z,32.78
2022-08-07T10:30:06.339Z,31.79
2022-08-07T10:32:52.585Z,30.92
2022-08-07T10:35:55.205Z,30.09
2022-08-07T10:38:48.458Z,29.30
2022-08-07T10:41:47.027Z,28.67
2022-08-07T10:44:37.792Z,28.01
2022-08-07T10:47:52.949Z,27.38
2022-08-07T10:50:30.583Z,26.98
2022-08-07T10:53:08.301Z,26.75
2022-08-07T10:55:45.985Z,26.60
2022-08-07T10:58:33.183Z,26.45
2022-08-07T11:01:35.143Z,26.35
2022-08-07T11:04:31.802Z,26.26
2022-08-07T11:07:24.845Z,26.16
2022-08-07T11:10:10.185Z,25.96
2022-08-07T11:12:49.259Z,25.65
2022-08-07T11:15:33.673Z,25.33
2022-08-07T11:18:09.587Z,25.12
2022-08-07T11:20:49.238Z,24.95
2022-08-07T11:23:30.672Z,24.86
2022-08-07T11:26:13.428Z,24.86
2022-08-07T11:28:55.409Z,24.81
2022-08-07T11:31:30.506Z,24.71
2022-08-07T11:34:11.968Z,24.63
2022-08-07T11:36:53.213Z,24.66
2022-08-07T11:40:00.303Z,24.69
2022-08-07T11:42:42.773Z,24.72
2022-08-07T11:45:30.032Z,24.70
2022-08-07T11:48:29.365Z,24.68
2022-08-07T11:51:40.831Z,24.67
2022-08-07T11:54:12.369Z,24.55
2022-08-07T11:56:59.983Z,24.53
2022-08-07T12:00:11.339Z,24.58
2022-08-07T12:03:41.692Z,24.61
2022-08-07T12:06:37.623Z,24.56
2022-08-07T12:09:16.526Z,24.56
2022-08-07T12:12:09.669Z,24.55
2022-08-07T12:14:55.500Z,24.44
2022-08-07T12:17:34.201Z,24.34
2022-08-07T12:20:18.511Z,24.25
2022-08-07T12:24:04.951Z,24.16
2022-08-07T12:26:29.086Z,24.11
2022-08-07T12:29:08.496Z,24.11
2022-08-07T12:32:01.817Z,24.13
2022-08-07T12:34:33.209Z,24.10
2022-08-07T12:37:08.573Z,24.07
2022-08-07T12:39:50.704Z,24.04
2022-08-07T12:42:27.797Z,24.02
2022-08-07T12:45:04.461Z,24.05
2022-08-07T12:47:43.998Z,24.03
2022-08-07T12:50:39.052Z,24.00
2022-08-07T12:53:17.969Z,24.04
2022-08-07T12:56:02.102Z,24.07
2022-08-07T12:58:37.603Z,24.04
2022-08-07T13:01:21.996Z,23.98
2022-08-07T13:04:31.578Z,23.95
2022-08-07T13:08:11.511Z,24.01
2022-08-07T13:10:39.368Z,24.13
2022-08-07T13:13:48.409Z,24.20
2022-08-07T13:16:23.912Z,24.26
2022-08-07T13:19:03.926Z,24.28
2022-08-07T13:21:51.787Z,24.25
2022-08-07T13:24:29.328Z,24.20
2022-08-07T13:27:08.433Z,24.20
2022-08-07T13:29:46.874Z,24.26
2022-08-07T13:32:32.309Z,24.31
2022-08-07T13:35:10.248Z,24.34
2022-08-07T13:37:59.105Z,24.36
2022-08-07T13:40:41.969Z,24.39
2022-08-07T13:43:16.367Z,24.39
2022-08-07T13:46:21.528Z,24.38
2022-08-07T13:48:41.793Z,24.36
2022-08-07T13:51:28.058Z,24.33
2022-08-07T13:54:23.833Z,24.36
2022-08-07T13:56:59.692Z,24.35
2022-08-07T13:59:33.395Z,24.38
2022-08-07T14:02:08.519Z,24.39
2022-08-07T14:04:54.446Z,24.43
2022-08-07T14:07:27.960Z,24.49
2022-08-07T14:10:17.377Z,24.52
2022-08-07T14:12:56.039Z,24.55
2022-08-07T14:15:31.613Z,24.53
2022-08-07T14:18:27.964Z,24.50
2022-08-07T14:21:08.134Z,24.50
2022-08-07T14:24:01.311Z,24.50
2022-08-07T14:26:38.255Z,24.48
2022-08-07T14:32:04.094Z,24.43
2022-08-07T14:34:45.788Z,24.39
2022-08-07T14:37:23.790Z,24.39
2022-08-07T14:40:16.979Z,24.38
2022-08-07T14:43:55.302Z,24.38
2022-08-07T14:45:51.786Z,24.40
2022-08-07T14:48:29.075Z,24.39
2022-08-07T14:51:04.934Z,24.39
2022-08-07T14:54:03.626Z,24.39
2022-08-07T14:56:35.168Z,24.39
2022-08-07T14:59:14.030Z,24.32
2022-08-07T15:01:58.240Z,24.24
2022-08-07T15:04:29.131Z,24.21
2022-08-07T15:09:59.031Z,24.17
2022-08-07T15:12:35.157Z,24.19
2022-08-07T15:15:09.261Z,24.24
2022-08-07T15:17:56.970Z,24.26
2022-08-07T15:20:54.643Z,24.30
2022-08-07T15:25:16.312Z,24.31
2022-08-07T15:30:08.644Z,24.34
2022-08-07T15:34:57.108Z,24.24
2022-08-07T15:37:29.922Z,24.21
2022-08-07T15:43:52.812Z,24.20
2022-08-07T15:46:32.400Z,24.19
2022-08-07T15:49:14.622Z,24.19
2022-08-07T15:54:29.344Z,24.16
2022-08-07T15:57:04.708Z,24.16
2022-08-07T15:59:44.235Z,24.13
2022-08-07T16:02:17.129Z,24.08
2022-08-07T16:04:49.894Z,24.03
2022-08-07T16:08:31.753Z,23.98
2022-08-07T16:10:15.457Z,23.93
2022-08-07T16:13:01.025Z,23.88
2022-08-07T16:15:57.303Z,23.83
2022-08-07T16:18:49.708Z,23.79
2022-08-07T16:22:01.262Z,23.78
2022-08-07T16:24:34.563Z,23.77
2022-08-07T16:27:18.610Z,23.77
2022-08-07T16:30:30.080Z,23.78
2022-08-07T16:34:01.859Z,23.80
2022-08-07T16:36:19.633Z,23.76
2022-08-07T16:39:17.743Z,23.74
2022-08-07T16:42:12.445Z,23.68
2022-08-07T16:46:21.157Z,23.63
2022-08-07T16:48:02.732Z,23.60
2022-08-07T16:51:20.730Z,23.54
2022-08-07T16:54:08.812Z,23.52
2022-08-07T16:56:53.232Z,23.47
2022-08-07T16:59:46.951Z,23.43
2022-08-07T17:02:52.170Z,23.41
2022-08-07T17:06:18.971Z,23.39
2022-08-07T17:09:08.701Z,23.36
2022-08-07T17:12:01.917Z,23.32
2022-08-07T17:14:28.258Z,23.29
2022-08-07T17:17:01.086Z,23.29
2022-08-07T17:20:02.136Z,23.29
2022-08-07T17:22:38.564Z,23.29
2022-08-07T17:25:18.547Z,23.27
2022-08-07T17:28:02.028Z,23.25
2022-08-07T17:30:58.596Z,23.20
2022-08-07T17:33:39.134Z,23.13
2022-08-07T17:36:26.789Z,23.05
2022-08-07T17:39:10.629Z,22.98
2022-08-07T17:42:03.843Z,22.90
2022-08-07T17:44:45.613Z,22.83
2022-08-07T17:47:38.036Z,22.77
2022-08-07T17:50:16.720Z,22.72
2022-08-07T17:52:58.932Z,22.70
2022-08-07T17:55:55.955Z,22.67
2022-08-07T17:58:34.736Z,22.63
2022-08-07T18:01:21.004Z,22.56
2022-08-07T18:04:07.076Z,22.46
2022-08-07T18:06:43.234Z,22.37
2022-08-07T18:10:05.249Z,22.28
2022-08-07T18:12:28.448Z,22.15
2022-08-07T18:15:08.388Z,22.07
2022-08-07T18:18:39.940Z,22.00
2022-08-07T18:21:09.541Z,21.90
2022-08-07T18:23:43.771Z,21.80
2022-08-07T18:26:23.450Z,21.71
2022-08-07T18:30:04.651Z,21.60
2022-08-07T18:32:08.355Z,21.46
2022-08-07T18:35:00.689Z,21.39
2022-08-07T18:38:55.357Z,21.30
2022-08-07T18:40:50.189Z,21.23
2022-08-07T18:43:42.781Z,21.13
2022-08-07T18:46:25.295Z,21.04
2022-08-07T18:50:30.966Z,20.95
2022-08-07T18:52:38.173Z,20.86
2022-08-07T18:54:59.766Z,20.78
2022-08-07T18:57:59.588Z,20.70
2022-08-07T19:00:55.092Z,20.59
2022-08-07T19:03:38.753Z,20.50
2022-08-07T19:06:16.446Z,20.41
2022-08-07T19:08:50.318Z,20.32
2022-08-07T19:11:36.639Z,20.23
2022-08-07T19:14:19.777Z,20.16
2022-08-07T19:17:04.571Z,20.10
2022-08-07T19:19:42.248Z,20.02
2022-08-07T19:22:19.386Z,19.93
2022-08-07T19:25:06.693Z,19.84
2022-08-07T19:28:58.069Z,19.77
2022-08-07T19:31:03.916Z,19.68
2022-08-07T19:33:33.363Z,19.59
2022-08-07T19:36:09.071Z,19.50
2022-08-07T19:38:53.167Z,19.41
2022-08-07T19:41:44.079Z,19.33
2022-08-07T19:44:21.308Z,19.26
2022-08-07T19:46:57.986Z,19.19
2022-08-07T19:49:58.135Z,19.11
2022-08-07T19:52:27.697Z,19.02
2022-08-07T19:54:58.344Z,18.92
2022-08-07T19:58:02.036Z,18.85
2022-08-07T20:00:28.118Z,18.75
2022-08-07T20:03:03.784Z,18.69
2022-08-07T20:05:59.820Z,18.63
2022-08-07T20:08:30.256Z,18.52
2022-08-07T20:11:04.010Z,18.43
2022-08-07T20:13:45.765Z,18.38
2022-08-07T20:16:35.670Z,18.34
2022-08-07T20:19:10.021Z,18.28
2022-08-07T20:21:41.839Z,18.22
2022-08-07T20:24:22.479Z,18.16
2022-08-07T20:26:55.847Z,18.09
2022-08-07T20:29:48.243Z,18.03
2022-08-07T20:32:25.652Z,17.96
2022-08-07T20:34:57.729Z,17.93
2022-08-07T20:37:33.791Z,17.92
2022-08-07T20:40:32.613Z,17.91
2022-08-07T20:42:59.177Z,17.89
2022-08-07T20:46:28.155Z,17.90
2022-08-07T20:48:30.327Z,17.87
2022-08-07T20:51:02.333Z,17.86
2022-08-07T20:54:04.171Z,17.85
2022-08-07T20:56:32.249Z,17.81
2022-08-07T20:59:06.064Z,17.77
2022-08-07T21:01:58.417Z,17.77
2022-08-07T21:04:31.816Z,17.77
2022-08-07T21:07:03.888Z,17.78
2022-08-07T21:09:51.573Z,17.76
2022-08-07T21:12:30.923Z,17.74
2022-08-07T21:15:03.578Z,17.72
2022-08-07T21:18:06.246Z,17.72
2022-08-07T21:20:29.845Z,17.67
2022-08-07T21:23:08.580Z,17.65
2022-08-07T21:25:56.178Z,17.61
2022-08-07T21:28:49.433Z,17.57
2022-08-07T21:31:49.803Z,17.53
2022-08-07T21:34:19.193Z,17.47
2022-08-07T21:36:54.554Z,17.42
2022-08-07T21:39:46.340Z,17.39
2022-08-07T21:42:42.623Z,17.33
2022-08-07T21:46:03.416Z,17.28
2022-08-07T21:48:27.765Z,17.22
2022-08-07T21:51:08.194Z,17.16
2022-08-07T21:53:54.054Z,17.12
2022-08-07T21:56:36.498Z,17.08
2022-08-07T21:59:14.194Z,17.04
2022-08-07T22:02:07.418Z,17.02
2022-08-07T22:04:53.775Z,16.96
2022-08-07T22:07:31.623Z,16.92
2022-08-07T22:10:20.101Z,16.89
2022-08-07T22:12:54.448Z,16.85
2022-08-07T22:16:43.804Z,16.80
2022-08-07T22:18:25.469Z,16.71
2022-08-07T22:21:01.444Z,16.66
2022-08-07T22:23:40.270Z,16.59
2022-08-07T22:26:18.025Z,16.58
2022-08-07T22:28:53.613Z,16.55
2022-08-07T22:31:56.421Z,16.51
2022-08-07T22:34:33.194Z,16.45
2022-08-07T22:37:12.477Z,16.40
2022-08-07T22:39:51.858Z,16.37
2022-08-07T22:42:25.784Z,16.35
2022-08-07T22:44:59.939Z,16.35
2022-08-07T22:47:53.228Z,16.36
2022-08-07T22:50:46.184Z,16.38
2022-08-07T22:54:06.926Z,16.41
2022-08-07T22:56:24.917Z,16.41
2022-08-07T22:59:33.947Z,16.41
2022-08-07T23:02:12.405Z,16.37
2022-08-07T23:04:57.903Z,16.35
2022-08-07T23:07:56.653Z,16.28
2022-08-07T23:10:41.864Z,16.24
2022-08-07T23:13:49.229Z,16.21
2022-08-07T23:16:48.334Z,16.16
2022-08-07T23:19:51.346Z,16.15
2022-08-07T23:22:32.435Z,16.13
2022-08-07T23:25:17.991Z,16.15
2022-08-07T23:28:21.026Z,16.15
2022-08-07T23:31:11.713Z,16.13
2022-08-07T23:34:33.967Z,16.10
2022-08-07T23:37:17.868Z,16.06
2022-08-07T23:39:44.666Z,16.03
2022-08-07T23:42:22.026Z,16.02
2022-08-07T23:45:33.285Z,16.04
2022-08-07T23:48:29.414Z,16.05
2022-08-07T23:51:03.019Z,16.03
2022-08-07T23:53:51.588Z,16.01
2022-08-07T23:56:26.708Z,15.98
2022-08-07T23:59:10.652Z,15.97
